sensor_id;sensor_type;location;lat;lon;timestamp;P1;durP1;ratioP1;P2;durP2;ratioP2
6878;SDS011;3478;51.462;7.338;2023-04-24T00:01:47;0.57;;;0.33;;
6878;SDS011;3478;51.462;7.338;2023-04-24T00:06:51;0.50;;;0.30;;
6878;SDS011;3478;51.462;7.338;2023-04-24T00:11:56;0.87;;;0.40;;
6878;SDS011;3478;51.462;7.338;2023-04-24T00:16:58;1.30;;;0.40;;
6878;SDS011;3478;51.462;7.338;2023-04-24T00:22:02;0.70;;;0.40;;
6878;SDS011;3478;51.462;7.338;2023-04-24T00:27:03;0.60;;;0.40;;
6878;SDS011;3478;51.462;7.338;2023-04-24T00:32:05;0.90;;;0.50;;
6878;SDS011;3478;51.462;7.338;2023-04-24T00:37:08;2.30;;;0.60;;
6878;SDS011;3478;51.462;7.338;2023-04-24T00:42:11;0.77;;;0.60;;
6878;SDS011;3478;51.462;7.338;2023-04-24T00:47:13;1.07;;;0.50;;
6878;SDS011;3478;51.462;7.338;2023-04-24T00:52:17;1.03;;;0.80;;
6878;SDS011;3478;51.462;7.338;2023-04-24T00:57:18;0.90;;;0.50;;
6878;SDS011;3478;51.462;7.338;2023-04-24T01:02:21;1.60;;;0.80;;
6878;SDS011;3478;51.462;7.338;2023-04-24T01:07:25;0.93;;;0.70;;
6878;SDS011;3478;51.462;7.338;2023-04-24T01:12:27;0.80;;;0.50;;
6878;SDS011;3478;51.462;7.338;2023-04-24T01:17:29;1.23;;;0.90;;
6878;SDS011;3478;51.462;7.338;2023-04-24T01:22:33;0.80;;;0.50;;
6878;SDS011;3478;51.462;7.338;2023-04-24T01:27:35;1.00;;;0.80;;
6878;SDS011;3478;51.462;7.338;2023-04-24T01:32:37;1.03;;;0.93;;
6878;SDS011;3478;51.462;7.338;2023-04-24T01:37:40;2.07;;;0.73;;
6878;SDS011;3478;51.462;7.338;2023-04-24T01:42:42;0.80;;;0.60;;
6878;SDS011;3478;51.462;7.338;2023-04-24T01:47:45;1.40;;;0.90;;
6878;SDS011;3478;51.462;7.338;2023-04-24T01:52:50;1.80;;;0.80;;
6878;SDS011;3478;51.462;7.338;2023-04-24T01:57:52;2.67;;;0.93;;
6878;SDS011;3478;51.462;7.338;2023-04-24T02:02:56;2.23;;;1.10;;
6878;SDS011;3478;51.462;7.338;2023-04-24T02:07:59;3.40;;;1.23;;
6878;SDS011;3478;51.462;7.338;2023-04-24T02:13:01;1.23;;;1.03;;
6878;SDS011;3478;51.462;7.338;2023-04-24T02:18:02;1.47;;;1.37;;
6878;SDS011;3478;51.462;7.338;2023-04-24T02:23:06;1.60;;;1.30;;
6878;SDS011;3478;51.462;7.338;2023-04-24T02:28:07;1.63;;;1.33;;
6878;SDS011;3478;51.462;7.338;2023-04-24T02:33:09;2.43;;;2.23;;
6878;SDS011;3478;51.462;7.338;2023-04-24T02:38:13;3.70;;;2.27;;
6878;SDS011;3478;51.462;7.338;2023-04-24T02:43:15;2.73;;;2.40;;
6878;SDS011;3478;51.462;7.338;2023-04-24T02:48:16;3.97;;;3.77;;
6878;SDS011;3478;51.462;7.338;2023-04-24T02:53:22;4.80;;;4.20;;
6878;SDS011;3478;51.462;7.338;2023-04-24T02:58:23;4.53;;;4.23;;
6878;SDS011;3478;51.462;7.338;2023-04-24T03:03:25;6.77;;;5.80;;
6878;SDS011;3478;51.462;7.338;2023-04-24T03:08:28;5.83;;;5.17;;
6878;SDS011;3478;51.462;7.338;2023-04-24T03:13:30;6.63;;;5.17;;
6878;SDS011;3478;51.462;7.338;2023-04-24T03:18:32;6.27;;;5.67;;
6878;SDS011;3478;51.462;7.338;2023-04-24T03:23:35;8.57;;;6.10;;
6878;SDS011;3478;51.462;7.338;2023-04-24T03:28:37;6.70;;;6.10;;
6878;SDS011;3478;51.462;7.338;2023-04-24T03:33:39;10.60;;;7.80;;
6878;SDS011;3478;51.462;7.338;2023-04-24T03:38:42;8.67;;;7.10;;
6878;SDS011;3478;51.462;7.338;2023-04-24T03:43:44;11.13;;;7.77;;
6878;SDS011;3478;51.462;7.338;2023-04-24T03:48:46;9.70;;;8.57;;
6878;SDS011;3478;51.462;7.338;2023-04-24T03:53:49;10.50;;;8.77;;
6878;SDS011;3478;51.462;7.338;2023-04-24T03:58:50;13.97;;;9.10;;
6878;SDS011;3478;51.462;7.338;2023-04-24T04:03:52;10.47;;;8.00;;
6878;SDS011;3478;51.462;7.338;2023-04-24T04:08:55;9.77;;;8.27;;
6878;SDS011;3478;51.462;7.338;2023-04-24T04:13:57;10.23;;;8.90;;
6878;SDS011;3478;51.462;7.338;2023-04-24T04:18:59;15.13;;;8.73;;
6878;SDS011;3478;51.462;7.338;2023-04-24T04:24:04;12.10;;;9.70;;
6878;SDS011;3478;51.462;7.338;2023-04-24T04:29:07;10.33;;;9.00;;
6878;SDS011;3478;51.462;7.338;2023-04-24T04:34:09;13.50;;;9.80;;
6878;SDS011;3478;51.462;7.338;2023-04-24T04:39:12;12.50;;;10.70;;
6878;SDS011;3478;51.462;7.338;2023-04-24T04:44:16;9.97;;;8.83;;
6878;SDS011;3478;51.462;7.338;2023-04-24T04:49:18;13.00;;;10.03;;
6878;SDS011;3478;51.462;7.338;2023-04-24T04:54:23;12.83;;;9.30;;
6878;SDS011;3478;51.462;7.338;2023-04-24T04:59:24;14.27;;;9.90;;
6878;SDS011;3478;51.462;7.338;2023-04-24T05:04:26;15.60;;;10.03;;
6878;SDS011;3478;51.462;7.338;2023-04-24T05:09:29;13.10;;;10.27;;
6878;SDS011;3478;51.462;7.338;2023-04-24T05:14:31;15.60;;;9.80;;
6878;SDS011;3478;51.462;7.338;2023-04-24T05:19:33;11.13;;;9.50;;
6878;SDS011;3478;51.462;7.338;2023-04-24T05:24:39;10.00;;;8.77;;
6878;SDS011;3478;51.462;7.338;2023-04-24T05:29:40;10.37;;;9.33;;
6878;SDS011;3478;51.462;7.338;2023-04-24T05:34:43;12.87;;;7.97;;
6878;SDS011;3478;51.462;7.338;2023-04-24T05:39:46;10.50;;;7.27;;
6878;SDS011;3478;51.462;7.338;2023-04-24T05:44:48;8.13;;;7.33;;
6878;SDS011;3478;51.462;7.338;2023-04-24T05:49:50;10.63;;;7.77;;
6878;SDS011;3478;51.462;7.338;2023-04-24T05:54:53;10.90;;;8.20;;
6878;SDS011;3478;51.462;7.338;2023-04-24T05:59:55;10.67;;;8.20;;
6878;SDS011;3478;51.462;7.338;2023-04-24T06:04:57;11.60;;;9.00;;
6878;SDS011;3478;51.462;7.338;2023-04-24T06:10:01;11.53;;;9.43;;
6878;SDS011;3478;51.462;7.338;2023-04-24T06:15:03;10.40;;;9.10;;
6878;SDS011;3478;51.462;7.338;2023-04-24T06:20:06;12.40;;;9.27;;
6878;SDS011;3478;51.462;7.338;2023-04-24T06:25:09;7.90;;;7.20;;
6878;SDS011;3478;51.462;7.338;2023-04-24T06:30:12;5.97;;;5.47;;
6878;SDS011;3478;51.462;7.338;2023-04-24T06:35:14;5.20;;;4.80;;
6878;SDS011;3478;51.462;7.338;2023-04-24T06:40:17;7.20;;;5.47;;
6878;SDS011;3478;51.462;7.338;2023-04-24T06:45:19;6.33;;;5.83;;
6878;SDS011;3478;51.462;7.338;2023-04-24T06:50:21;6.30;;;5.73;;
6878;SDS011;3478;51.462;7.338;2023-04-24T06:55:24;7.60;;;6.33;;
6878;SDS011;3478;51.462;7.338;2023-04-24T07:00:26;7.00;;;6.40;;
6878;SDS011;3478;51.462;7.338;2023-04-24T07:05:29;6.73;;;6.13;;
6878;SDS011;3478;51.462;7.338;2023-04-24T07:10:35;7.40;;;5.90;;
6878;SDS011;3478;51.462;7.338;2023-04-24T07:15:36;6.10;;;5.60;;
6878;SDS011;3478;51.462;7.338;2023-04-24T07:20:39;6.83;;;6.23;;
6878;SDS011;3478;51.462;7.338;2023-04-24T07:25:43;6.10;;;5.70;;
6878;SDS011;3478;51.462;7.338;2023-04-24T07:30:45;5.47;;;5.00;;
6878;SDS011;3478;51.462;7.338;2023-04-24T07:35:47;4.17;;;3.77;;
6878;SDS011;3478;51.462;7.338;2023-04-24T07:40:50;4.60;;;4.20;;
6878;SDS011;3478;51.462;7.338;2023-04-24T07:45:52;3.37;;;3.17;;
6878;SDS011;3478;51.462;7.338;2023-04-24T07:50:53;4.80;;;3.20;;
6878;SDS011;3478;51.462;7.338;2023-04-24T07:55:57;2.80;;;2.60;;
6878;SDS011;3478;51.462;7.338;2023-04-24T08:00:59;1.77;;;1.63;;
6878;SDS011;3478;51.462;7.338;2023-04-24T08:06:00;2.67;;;1.73;;
6878;SDS011;3478;51.462;7.338;2023-04-24T08:11:04;1.47;;;1.00;;
6878;SDS011;3478;51.462;7.338;2023-04-24T08:16:05;2.20;;;0.70;;
6878;SDS011;3478;51.462;7.338;2023-04-24T08:21:07;1.83;;;0.80;;
6878;SDS011;3478;51.462;7.338;2023-04-24T08:26:11;1.10;;;0.77;;
6878;SDS011;3478;51.462;7.338;2023-04-24T08:31:13;1.30;;;1.20;;
6878;SDS011;3478;51.462;7.338;2023-04-24T08:36:15;0.50;;;0.37;;
6878;SDS011;3478;51.462;7.338;2023-04-24T08:41:18;1.30;;;0.40;;
6878;SDS011;3478;51.462;7.338;2023-04-24T08:46:21;0.63;;;0.30;;
6878;SDS011;3478;51.462;7.338;2023-04-24T08:51:24;0.50;;;0.40;;
6878;SDS011;3478;51.462;7.338;2023-04-24T08:56:30;0.60;;;0.40;;
6878;SDS011;3478;51.462;7.338;2023-04-24T09:01:34;0.57;;;0.30;;
6878;SDS011;3478;51.462;7.338;2023-04-24T09:06:40;0.50;;;0.40;;
6878;SDS011;3478;51.462;7.338;2023-04-24T09:11:44;0.70;;;0.40;;
6878;SDS011;3478;51.462;7.338;2023-04-24T09:16:46;1.00;;;0.50;;
6878;SDS011;3478;51.462;7.338;2023-04-24T09:21:49;0.73;;;0.60;;
6878;SDS011;3478;51.462;7.338;2023-04-24T09:26:57;1.60;;;0.80;;
6878;SDS011;3478;51.462;7.338;2023-04-24T09:32:10;1.30;;;1.20;;
6878;SDS011;3478;51.462;7.338;2023-04-24T09:37:27;1.30;;;1.20;;
6878;SDS011;3478;51.462;7.338;2023-04-24T09:42:31;1.90;;;1.00;;
6878;SDS011;3478;51.462;7.338;2023-04-24T09:47:35;5.83;;;0.93;;
6878;SDS011;3478;51.462;7.338;2023-04-24T09:52:39;1.33;;;1.07;;
6878;SDS011;3478;51.462;7.338;2023-04-24T09:57:50;1.57;;;0.77;;
6878;SDS011;3478;51.462;7.338;2023-04-24T10:02:57;1.50;;;1.40;;
6878;SDS011;3478;51.462;7.338;2023-04-24T10:08:00;1.63;;;1.37;;
6878;SDS011;3478;51.462;7.338;2023-04-24T10:13:05;2.80;;;1.43;;
6878;SDS011;3478;51.462;7.338;2023-04-24T10:18:10;2.77;;;1.90;;
6878;SDS011;3478;51.462;7.338;2023-04-24T10:23:12;1.73;;;1.63;;
6878;SDS011;3478;51.462;7.338;2023-04-24T10:28:15;1.67;;;1.57;;
6878;SDS011;3478;51.462;7.338;2023-04-24T10:33:19;4.03;;;2.33;;
6878;SDS011;3478;51.462;7.338;2023-04-24T10:38:21;2.40;;;1.63;;
6878;SDS011;3478;51.462;7.338;2023-04-24T10:43:28;1.87;;;1.77;;
6878;SDS011;3478;51.462;7.338;2023-04-24T10:48:30;9.90;;;3.63;;
6878;SDS011;3478;51.462;7.338;2023-04-24T10:53:34;3.13;;;2.87;;
6878;SDS011;3478;51.462;7.338;2023-04-24T10:58:39;4.53;;;4.13;;
6878;SDS011;3478;51.462;7.338;2023-04-24T11:03:50;5.93;;;4.63;;
6878;SDS011;3478;51.462;7.338;2023-04-24T11:08:58;7.23;;;5.60;;
6878;SDS011;3478;51.462;7.338;2023-04-24T11:14:05;7.77;;;6.03;;
6878;SDS011;3478;51.462;7.338;2023-04-24T11:19:17;8.77;;;6.93;;
6878;SDS011;3478;51.462;7.338;2023-04-24T11:24:24;8.53;;;6.07;;
6878;SDS011;3478;51.462;7.338;2023-04-24T11:29:41;13.03;;;6.10;;
6878;SDS011;3478;51.462;7.338;2023-04-24T11:34:48;11.60;;;7.70;;
6878;SDS011;3478;51.462;7.338;2023-04-24T11:39:51;9.83;;;6.50;;
6878;SDS011;3478;51.462;7.338;2023-04-24T11:44:55;14.60;;;7.63;;
6878;SDS011;3478;51.462;7.338;2023-04-24T11:49:57;10.83;;;6.90;;
6878;SDS011;3478;51.462;7.338;2023-04-24T11:54:59;7.53;;;5.90;;
6878;SDS011;3478;51.462;7.338;2023-04-24T12:00:04;17.00;;;6.83;;
6878;SDS011;3478;51.462;7.338;2023-04-24T12:05:08;12.97;;;7.03;;
6878;SDS011;3478;51.462;7.338;2023-04-24T12:10:11;10.30;;;5.23;;
6878;SDS011;3478;51.462;7.338;2023-04-24T12:15:16;8.13;;;4.03;;
6878;SDS011;3478;51.462;7.338;2023-04-24T12:20:23;23.23;;;4.53;;
6878;SDS011;3478;51.462;7.338;2023-04-24T12:25:26;5.90;;;3.97;;
6878;SDS011;3478;51.462;7.338;2023-04-24T12:30:31;12.73;;;4.53;;
6878;SDS011;3478;51.462;7.338;2023-04-24T12:35:35;13.40;;;4.43;;
6878;SDS011;3478;51.462;7.338;2023-04-24T12:40:37;4.90;;;3.40;;
6878;SDS011;3478;51.462;7.338;2023-04-24T12:45:40;5.40;;;3.53;;
6878;SDS011;3478;51.462;7.338;2023-04-24T12:50:43;4.83;;;2.70;;
6878;SDS011;3478;51.462;7.338;2023-04-24T12:55:45;4.20;;;3.50;;
6878;SDS011;3478;51.462;7.338;2023-04-24T13:00:53;4.67;;;3.50;;
6878;SDS011;3478;51.462;7.338;2023-04-24T13:05:55;4.50;;;3.67;;
6878;SDS011;3478;51.462;7.338;2023-04-24T13:10:57;7.90;;;3.47;;
6878;SDS011;3478;51.462;7.338;2023-04-24T13:16:00;3.10;;;2.90;;
6878;SDS011;3478;51.462;7.338;2023-04-24T13:21:02;5.70;;;2.70;;
6878;SDS011;3478;51.462;7.338;2023-04-24T13:26:04;4.70;;;2.57;;
6878;SDS011;3478;51.462;7.338;2023-04-24T13:31:07;3.03;;;2.83;;
6878;SDS011;3478;51.462;7.338;2023-04-24T13:36:09;2.93;;;2.00;;
6878;SDS011;3478;51.462;7.338;2023-04-24T13:41:11;2.27;;;2.03;;
6878;SDS011;3478;51.462;7.338;2023-04-24T13:46:14;1.30;;;1.20;;
6878;SDS011;3478;51.462;7.338;2023-04-24T13:51:16;2.60;;;1.20;;
6878;SDS011;3478;51.462;7.338;2023-04-24T13:56:18;1.97;;;1.10;;
6878;SDS011;3478;51.462;7.338;2023-04-24T14:01:23;1.53;;;1.30;;
6878;SDS011;3478;51.462;7.338;2023-04-24T14:06:26;1.37;;;0.73;;
6878;SDS011;3478;51.462;7.338;2023-04-24T14:11:28;3.10;;;1.47;;
6878;SDS011;3478;51.462;7.338;2023-04-24T14:16:31;1.70;;;1.53;;
6878;SDS011;3478;51.462;7.338;2023-04-24T14:21:35;2.47;;;1.00;;
6878;SDS011;3478;51.462;7.338;2023-04-24T14:26:37;2.30;;;0.60;;
6878;SDS011;3478;51.462;7.338;2023-04-24T14:31:44;1.33;;;0.80;;
6878;SDS011;3478;51.462;7.338;2023-04-24T14:36:46;1.77;;;0.90;;
6878;SDS011;3478;51.462;7.338;2023-04-24T14:41:52;2.80;;;0.87;;
6878;SDS011;3478;51.462;7.338;2023-04-24T14:46:56;6.10;;;1.23;;
6878;SDS011;3478;51.462;7.338;2023-04-24T14:51:58;1.30;;;1.20;;
6878;SDS011;3478;51.462;7.338;2023-04-24T14:57:00;3.10;;;1.17;;
6878;SDS011;3478;51.462;7.338;2023-04-24T15:02:03;1.17;;;0.70;;
6878;SDS011;3478;51.462;7.338;2023-04-24T15:07:06;1.27;;;0.93;;
6878;SDS011;3478;51.462;7.338;2023-04-24T15:12:08;2.23;;;0.80;;
6878;SDS011;3478;51.462;7.338;2023-04-24T15:17:13;1.57;;;1.40;;
6878;SDS011;3478;51.462;7.338;2023-04-24T15:22:17;3.33;;;1.33;;
6878;SDS011;3478;51.462;7.338;2023-04-24T15:27:20;1.60;;;1.43;;
6878;SDS011;3478;51.462;7.338;2023-04-24T15:32:23;1.70;;;1.20;;
6878;SDS011;3478;51.462;7.338;2023-04-24T15:37:25;1.87;;;1.53;;
6878;SDS011;3478;51.462;7.338;2023-04-24T15:42:27;2.33;;;1.33;;
6878;SDS011;3478;51.462;7.338;2023-04-24T15:47:31;3.40;;;1.20;;
6878;SDS011;3478;51.462;7.338;2023-04-24T15:52:33;1.60;;;1.50;;
6878;SDS011;3478;51.462;7.338;2023-04-24T15:57:35;1.80;;;1.07;;
6878;SDS011;3478;51.462;7.338;2023-04-24T16:02:38;3.90;;;0.90;;
6878;SDS011;3478;51.462;7.338;2023-04-24T16:07:40;1.10;;;1.00;;
6878;SDS011;3478;51.462;7.338;2023-04-24T16:12:43;5.10;;;0.93;;
6878;SDS011;3478;51.462;7.338;2023-04-24T16:17:46;2.07;;;1.17;;
6878;SDS011;3478;51.462;7.338;2023-04-24T16:22:49;2.23;;;0.90;;
6878;SDS011;3478;51.462;7.338;2023-04-24T16:27:51;3.23;;;1.17;;
6878;SDS011;3478;51.462;7.338;2023-04-24T16:32:55;1.70;;;1.00;;
6878;SDS011;3478;51.462;7.338;2023-04-24T16:37:57;1.00;;;0.70;;
6878;SDS011;3478;51.462;7.338;2023-04-24T16:42:59;1.90;;;0.80;;
6878;SDS011;3478;51.462;7.338;2023-04-24T16:48:03;1.30;;;1.03;;
6878;SDS011;3478;51.462;7.338;2023-04-24T16:53:05;1.53;;;0.70;;
6878;SDS011;3478;51.462;7.338;2023-04-24T16:58:07;1.20;;;0.73;;
6878;SDS011;3478;51.462;7.338;2023-04-24T17:03:10;1.43;;;0.50;;
6878;SDS011;3478;51.462;7.338;2023-04-24T17:08:12;3.37;;;0.90;;
6878;SDS011;3478;51.462;7.338;2023-04-24T17:13:14;1.43;;;1.33;;
6878;SDS011;3478;51.462;7.338;2023-04-24T17:18:18;1.97;;;0.90;;
6878;SDS011;3478;51.462;7.338;2023-04-24T17:23:20;0.90;;;0.70;;
6878;SDS011;3478;51.462;7.338;2023-04-24T17:28:23;3.50;;;0.97;;
6878;SDS011;3478;51.462;7.338;2023-04-24T17:33:27;2.40;;;1.40;;
6878;SDS011;3478;51.462;7.338;2023-04-24T17:38:30;2.83;;;1.40;;
6878;SDS011;3478;51.462;7.338;2023-04-24T17:43:32;4.10;;;1.50;;
6878;SDS011;3478;51.462;7.338;2023-04-24T17:48:36;0.90;;;0.80;;
6878;SDS011;3478;51.462;7.338;2023-04-24T17:53:38;2.70;;;1.30;;
6878;SDS011;3478;51.462;7.338;2023-04-24T17:58:40;3.97;;;1.30;;
6878;SDS011;3478;51.462;7.338;2023-04-24T18:03:44;2.77;;;1.10;;
6878;SDS011;3478;51.462;7.338;2023-04-24T18:08:46;10.70;;;1.90;;
6878;SDS011;3478;51.462;7.338;2023-04-24T18:13:48;14.07;;;2.00;;
6878;SDS011;3478;51.462;7.338;2023-04-24T18:18:51;2.87;;;1.67;;
6878;SDS011;3478;51.462;7.338;2023-04-24T18:23:54;1.73;;;1.53;;
6878;SDS011;3478;51.462;7.338;2023-04-24T18:28:59;3.70;;;2.47;;
6878;SDS011;3478;51.462;7.338;2023-04-24T18:34:02;4.57;;;1.93;;
6878;SDS011;3478;51.462;7.338;2023-04-24T18:39:04;4.03;;;1.43;;
6878;SDS011;3478;51.462;7.338;2023-04-24T18:44:06;2.40;;;1.30;;
6878;SDS011;3478;51.462;7.338;2023-04-24T18:49:12;2.47;;;1.70;;
6878;SDS011;3478;51.462;7.338;2023-04-24T18:54:14;3.63;;;1.43;;
6878;SDS011;3478;51.462;7.338;2023-04-24T18:59:16;4.10;;;2.00;;
6878;SDS011;3478;51.462;7.338;2023-04-24T19:04:19;4.80;;;1.93;;
6878;SDS011;3478;51.462;7.338;2023-04-24T19:09:21;5.57;;;1.97;;
6878;SDS011;3478;51.462;7.338;2023-04-24T19:14:23;7.83;;;2.00;;
6878;SDS011;3478;51.462;7.338;2023-04-24T19:19:27;2.50;;;2.30;;
6878;SDS011;3478;51.462;7.338;2023-04-24T19:24:31;5.50;;;2.10;;
6878;SDS011;3478;51.462;7.338;2023-04-24T19:29:33;2.87;;;1.73;;
6878;SDS011;3478;51.462;7.338;2023-04-24T19:34:36;8.27;;;1.83;;
6878;SDS011;3478;51.462;7.338;2023-04-24T19:39:38;2.80;;;1.90;;
6878;SDS011;3478;51.462;7.338;2023-04-24T19:44:40;2.87;;;1.63;;
6878;SDS011;3478;51.462;7.338;2023-04-24T19:49:43;2.20;;;1.70;;
6878;SDS011;3478;51.462;7.338;2023-04-24T19:54:46;2.13;;;1.80;;
6878;SDS011;3478;51.462;7.338;2023-04-24T19:59:48;3.73;;;1.90;;
6878;SDS011;3478;51.462;7.338;2023-04-24T20:04:51;10.77;;;1.80;;
6878;SDS011;3478;51.462;7.338;2023-04-24T20:09:53;6.30;;;1.87;;
6878;SDS011;3478;51.462;7.338;2023-04-24T20:14:55;4.20;;;2.20;;
6878;SDS011;3478;51.462;7.338;2023-04-24T20:19:58;3.27;;;1.93;;
6878;SDS011;3478;51.462;7.338;2023-04-24T20:25:00;4.70;;;2.80;;
6878;SDS011;3478;51.462;7.338;2023-04-24T20:30:02;3.83;;;2.97;;
6878;SDS011;3478;51.462;7.338;2023-04-24T20:35:07;5.60;;;3.20;;
6878;SDS011;3478;51.462;7.338;2023-04-24T20:40:11;4.53;;;2.40;;
6878;SDS011;3478;51.462;7.338;2023-04-24T20:45:13;7.13;;;3.67;;
6878;SDS011;3478;51.462;7.338;2023-04-24T20:50:18;2.90;;;1.93;;
6878;SDS011;3478;51.462;7.338;2023-04-24T20:55:20;6.30;;;2.53;;
6878;SDS011;3478;51.462;7.338;2023-04-24T21:00:22;6.53;;;2.60;;
6878;SDS011;3478;51.462;7.338;2023-04-24T21:05:25;2.73;;;2.03;;
6878;SDS011;3478;51.462;7.338;2023-04-24T21:10:27;5.20;;;2.50;;
6878;SDS011;3478;51.462;7.338;2023-04-24T21:15:29;4.40;;;2.40;;
6878;SDS011;3478;51.462;7.338;2023-04-24T21:20:32;3.13;;;2.83;;
6878;SDS011;3478;51.462;7.338;2023-04-24T21:25:34;6.47;;;2.70;;
6878;SDS011;3478;51.462;7.338;2023-04-24T21:30:37;8.17;;;2.20;;
6878;SDS011;3478;51.462;7.338;2023-04-24T21:35:40;4.40;;;2.73;;
6878;SDS011;3478;51.462;7.338;2023-04-24T21:40:42;10.97;;;3.33;;
6878;SDS011;3478;51.462;7.338;2023-04-24T21:45:44;11.97;;;3.13;;
6878;SDS011;3478;51.462;7.338;2023-04-24T21:50:48;10.23;;;3.50;;
6878;SDS011;3478;51.462;7.338;2023-04-24T21:55:50;6.73;;;3.40;;
6878;SDS011;3478;51.462;7.338;2023-04-24T22:00:52;7.20;;;3.80;;
6878;SDS011;3478;51.462;7.338;2023-04-24T22:05:55;8.60;;;2.83;;
6878;SDS011;3478;51.462;7.338;2023-04-24T22:10:57;4.03;;;3.63;;
6878;SDS011;3478;51.462;7.338;2023-04-24T22:16:00;12.37;;;4.50;;
6878;SDS011;3478;51.462;7.338;2023-04-24T22:21:03;4.93;;;4.37;;
6878;SDS011;3478;51.462;7.338;2023-04-24T22:26:05;8.13;;;3.37;;
6878;SDS011;3478;51.462;7.338;2023-04-24T22:31:07;9.90;;;3.87;;
6878;SDS011;3478;51.462;7.338;2023-04-24T22:36:10;12.27;;;5.30;;
6878;SDS011;3478;51.462;7.338;2023-04-24T22:41:12;8.03;;;4.20;;
6878;SDS011;3478;51.462;7.338;2023-04-24T22:46:15;5.07;;;3.80;;
6878;SDS011;3478;51.462;7.338;2023-04-24T22:51:18;12.40;;;4.07;;
6878;SDS011;3478;51.462;7.338;2023-04-24T22:56:21;7.40;;;4.77;;
6878;SDS011;3478;51.462;7.338;2023-04-24T23:01:23;11.33;;;4.70;;
6878;SDS011;3478;51.462;7.338;2023-04-24T23:06:27;10.40;;;5.33;;
6878;SDS011;3478;51.462;7.338;2023-04-24T23:11:29;15.23;;;4.57;;
6878;SDS011;3478;51.462;7.338;2023-04-24T23:16:32;6.37;;;3.93;;
6878;SDS011;3478;51.462;7.338;2023-04-24T23:21:37;8.57;;;5.17;;
6878;SDS011;3478;51.462;7.338;2023-04-24T23:26:40;7.47;;;5.47;;
6878;SDS011;3478;51.462;7.338;2023-04-24T23:31:42;7.10;;;4.43;;
6878;SDS011;3478;51.462;7.338;2023-04-24T23:36:45;13.50;;;5.10;;
6878;SDS011;3478;51.462;7.338;2023-04-24T23:41:47;6.17;;;4.20;;
6878;SDS011;3478;51.462;7.338;2023-04-24T23:46:52;10.33;;;4.20;;
6878;SDS011;3478;51.462;7.338;2023-04-24T23:51:55;9.13;;;5.20;;
6878;SDS011;3478;51.462;7.338;2023-04-24T23:56:57;7.50;;;5.50;;
